Time;durP1;ratioP1;P1;durP2;ratioP2;P2;SDS_P1;SDS_P2;PMS_P1;PMS_P2;Temp;Humidity;BMP_temperature;BMP_pressure;BME280_temperature;BME280_humidity;BME280_pressure;Samples;Min_cycle;Max_cycle;Signal;HPM_P1;HPM_P2
2020/12/17 00:00:16;;;;;;;59.70;23.60;;;;;;;;;;5061574;28;20455;-84
2020/12/17 00:02:42;;;;;;;67.60;23.52;;;;;;;;;;5079514;28;20052;-84
2020/12/17 00:05:09;;;;;;;67.10;25.45;;;;;;;;;;5060961;28;20052;-84
2020/12/17 00:07:37;;;;;;;57.80;22.80;;;;;;;;;;5078461;28;20102;-84
2020/12/17 00:10:08;;;;;;;64.32;23.90;;;;;;;;;;5061498;28;20060;-85
2020/12/17 00:12:36;;;;;;;58.00;22.20;;;;;;;;;;5062235;28;20040;-85
2020/12/17 00:15:05;;;;;;;58.47;22.48;;;;;;;;;;5061647;28;20489;-84
2020/12/17 00:17:32;;;;;;;70.15;23.52;;;;;;;;;;5061842;28;20095;-85
2020/12/17 00:19:58;;;;;;;71.65;23.17;;;;;;;;;;5061881;28;20676;-84
2020/12/17 00:22:25;;;;;;;68.07;23.15;;;;;;;;;;5061462;28;20052;-84
2020/12/17 00:24:52;;;;;;;73.10;25.42;;;;;;;;;;5061422;28;20110;-84
2020/12/17 00:27:19;;;;;;;70.28;25.13;;;;;;;;;;5060636;28;20052;-84
2020/12/17 00:29:45;;;;;;;70.47;24.15;;;;;;;;;;5060634;28;20072;-84
2020/12/17 00:32:13;;;;;;;66.20;23.65;;;;;;;;;;5078407;28;20093;-83
2020/12/17 00:34:40;;;;;;;64.68;22.23;;;;;;;;;;5078522;28;20079;-84
2020/12/17 00:37:09;;;;;;;63.50;23.42;;;;;;;;;;5060945;28;20056;-84
2020/12/17 00:39:35;;;;;;;58.50;23.17;;;;;;;;;;5060573;28;20091;-84
2020/12/17 00:42:06;;;;;;;69.47;24.13;;;;;;;;;;5060165;28;20048;-84
2020/12/17 00:44:33;;;;;;;71.15;24.70;;;;;;;;;;5060259;28;20566;-84
2020/12/17 00:46:59;;;;;;;67.15;24.17;;;;;;;;;;5060487;28;20110;-85
2020/12/17 00:49:26;;;;;;;69.43;24.48;;;;;;;;;;5060329;28;20074;-84
2020/12/17 00:52:00;;;;;;;63.63;24.08;;;;;;;;;;5060113;28;20072;-84
2020/12/17 00:54:27;;;;;;;68.40;23.60;;;;;;;;;;5078158;28;20040;-84
2020/12/17 00:56:54;;;;;;;61.95;22.23;;;;;;;;;;5078786;28;20127;-83
2020/12/17 00:59:21;;;;;;;63.70;22.40;;;;;;;;;;5078786;28;20131;-84
2020/12/17 01:01:49;;;;;;;55.38;22.02;;;;;;;;;;5060281;28;20056;-84
2020/12/17 01:04:15;;;;;;;62.58;22.40;;;;;;;;;;5061455;28;20045;-84
2020/12/17 01:06:42;;;;;;;62.05;22.92;;;;;;;;;;5060787;28;20044;-84
2020/12/17 01:09:10;;;;;;;56.08;20.48;;;;;;;;;;5078599;28;20052;-83
2020/12/17 01:11:37;;;;;;;61.95;21.48;;;;;;;;;;5060584;28;20524;-84
2020/12/17 01:14:04;;;;;;;62.95;22.92;;;;;;;;;;5060083;28;20105;-83
2020/12/17 01:16:31;;;;;;;60.15;20.67;;;;;;;;;;5060612;28;20144;-84
2020/12/17 01:18:59;;;;;;;59.13;20.73;;;;;;;;;;5060761;28;20082;-84
2020/12/17 01:21:25;;;;;;;71.40;23.27;;;;;;;;;;5077840;28;20110;-83
2020/12/17 01:23:52;;;;;;;61.65;20.95;;;;;;;;;;5059898;28;20082;-82
2020/12/17 01:26:20;;;;;;;60.40;23.00;;;;;;;;;;5077693;28;20067;-84
2020/12/17 01:28:46;;;;;;;58.97;21.27;;;;;;;;;;5060303;28;20048;-83
2020/12/17 01:31:14;;;;;;;52.08;21.27;;;;;;;;;;5077329;28;20079;-83
2020/12/17 01:33:42;;;;;;;63.92;22.30;;;;;;;;;;5060139;28;20059;-84
2020/12/17 01:36:10;;;;;;;60.17;21.33;;;;;;;;;;5060430;28;20044;-83
2020/12/17 01:38:37;;;;;;;59.65;21.33;;;;;;;;;;5068098;28;20075;-84
2020/12/17 01:41:04;;;;;;;63.67;21.35;;;;;;;;;;5052545;28;20755;-84
2020/12/17 01:43:52;;;;;;;63.88;21.40;;;;;;;;;;5057656;28;20056;-84
2020/12/17 01:46:19;;;;;;;60.53;20.60;;;;;;;;;;5049787;28;20667;-85
2020/12/17 01:48:45;;;;;;;56.53;20.58;;;;;;;;;;5060178;28;20041;-85
2020/12/17 01:51:12;;;;;;;59.53;20.77;;;;;;;;;;5060111;28;20086;-84
2020/12/17 01:53:40;;;;;;;60.85;20.92;;;;;;;;;;5060171;28;20068;-85
2020/12/17 01:56:28;;;;;;;57.38;20.27;;;;;;;;;;5078306;28;20056;-85
2020/12/17 01:59:03;;;;;;;52.42;19.70;;;;;;;;;;5060800;28;20087;-85
2020/12/17 02:01:32;;;;;;;62.17;21.02;;;;;;;;;;5059714;28;20501;-85
2020/12/17 02:03:59;;;;;;;56.97;21.20;;;;;;;;;;5060019;28;20044;-85
2020/12/17 02:06:27;;;;;;;59.17;20.02;;;;;;;;;;5077190;28;20048;-84
2020/12/17 02:08:54;;;;;;;61.22;23.15;;;;;;;;;;5059518;28;20083;-84
2020/12/17 02:11:21;;;;;;;53.00;19.38;;;;;;;;;;5059481;28;20534;-84
2020/12/17 02:13:48;;;;;;;57.28;20.08;;;;;;;;;;5059009;28;20452;-85
2020/12/17 02:16:15;;;;;;;58.78;20.23;;;;;;;;;;5058882;28;20037;-85
2020/12/17 02:18:43;;;;;;;55.42;19.83;;;;;;;;;;5058858;28;20071;-84
2020/12/17 02:21:09;;;;;;;58.42;20.48;;;;;;;;;;5059534;28;20076;-84
2020/12/17 02:23:37;;;;;;;56.03;20.42;;;;;;;;;;5060055;28;20051;-84
2020/12/17 02:26:06;;;;;;;52.72;19.17;;;;;;;;;;5059702;28;20460;-83
2020/12/17 02:28:33;;;;;;;59.17;20.50;;;;;;;;;;5077420;28;20095;-84
2020/12/17 02:30:59;;;;;;;61.90;21.92;;;;;;;;;;5059279;28;20091;-84
2020/12/17 02:33:26;;;;;;;63.92;22.38;;;;;;;;;;5077209;28;20044;-84
2020/12/17 02:35:53;;;;;;;55.38;20.33;;;;;;;;;;5077248;28;20040;-84
2020/12/17 02:38:21;;;;;;;52.92;19.63;;;;;;;;;;5059641;28;20052;-84
2020/12/17 02:40:55;;;;;;;55.75;20.40;;;;;;;;;;5059268;28;20078;-84
2020/12/17 02:43:21;;;;;;;53.70;19.95;;;;;;;;;;5059122;28;20101;-83
2020/12/17 02:45:52;;;;;;;61.78;21.30;;;;;;;;;;5059398;28;20643;-83
2020/12/17 02:48:19;;;;;;;53.95;20.83;;;;;;;;;;5076125;28;20509;-83
2020/12/17 02:50:46;;;;;;;53.90;19.83;;;;;;;;;;5058793;28;20131;-83
2020/12/17 02:53:13;;;;;;;60.60;19.45;;;;;;;;;;5058501;28;20074;-84
2020/12/17 02:55:41;;;;;;;59.53;20.42;;;;;;;;;;5059643;28;20060;-84
2020/12/17 02:58:07;;;;;;;57.42;19.10;;;;;;;;;;5059194;28;20570;-84
2020/12/17 03:00:34;;;;;;;55.30;20.15;;;;;;;;;;5059009;28;20072;-84
2020/12/17 03:03:06;;;;;;;59.28;20.63;;;;;;;;;;5076820;28;20460;-84
2020/12/17 03:05:33;;;;;;;54.03;19.13;;;;;;;;;;5059506;28;20348;-84
2020/12/17 03:08:18;;;;;;;48.92;19.60;;;;;;;;;;5061404;28;20044;-84
2020/12/17 03:10:47;;;;;;;55.17;19.70;;;;;;;;;;5058598;28;20049;-84
2020/12/17 03:13:14;;;;;;;57.58;19.92;;;;;;;;;;5076211;28;20045;-83
2020/12/17 03:15:40;;;;;;;55.92;19.30;;;;;;;;;;5058776;28;20059;-83
2020/12/17 03:18:07;;;;;;;51.22;20.20;;;;;;;;;;5076309;28;20109;-83
2020/12/17 03:20:33;;;;;;;50.58;19.55;;;;;;;;;;5058790;28;20099;-83
2020/12/17 03:23:01;;;;;;;54.63;20.73;;;;;;;;;;5076042;28;20493;-83
2020/12/17 03:25:28;;;;;;;53.63;19.92;;;;;;;;;;5060120;28;20076;-83
2020/12/17 03:27:54;;;;;;;58.78;19.65;;;;;;;;;;5061877;28;20052;-83
2020/12/17 03:30:24;;;;;;;60.30;20.77;;;;;;;;;;5079810;28;20048;-82
2020/12/17 03:32:51;;;;;;;53.65;19.52;;;;;;;;;;5079507;28;20412;-83
2020/12/17 03:35:19;;;;;;;57.83;22.63;;;;;;;;;;5061875;28;20135;-82
2020/12/17 03:37:46;;;;;;;56.35;21.80;;;;;;;;;;5079759;28;20044;-82
2020/12/17 03:40:13;;;;;;;58.80;20.95;;;;;;;;;;5061102;28;20075;-82
2020/12/17 03:42:39;;;;;;;60.25;20.90;;;;;;;;;;5078969;28;20098;-82
2020/12/17 03:45:07;;;;;;;55.53;20.13;;;;;;;;;;5061481;28;20497;-82
2020/12/17 03:47:34;;;;;;;60.85;22.20;;;;;;;;;;5061385;28;20613;-83
2020/12/17 03:50:00;;;;;;;57.45;21.55;;;;;;;;;;5079578;28;20071;-83
2020/12/17 03:52:27;;;;;;;58.70;21.13;;;;;;;;;;5060590;28;20048;-83
2020/12/17 03:54:54;;;;;;;47.70;19.10;;;;;;;;;;5079099;28;20068;-83
2020/12/17 03:57:20;;;;;;;65.35;20.80;;;;;;;;;;5061737;28;20084;-83
2020/12/17 03:59:47;;;;;;;57.65;20.80;;;;;;;;;;5079845;28;20071;-83
2020/12/17 04:02:14;;;;;;;55.70;20.35;;;;;;;;;;5060939;28;20139;-83
2020/12/17 04:04:42;;;;;;;62.13;21.80;;;;;;;;;;5079731;28;20098;-83
2020/12/17 04:07:13;;;;;;;63.97;20.88;;;;;;;;;;5062359;28;20110;-83
2020/12/17 04:09:40;;;;;;;58.50;21.70;;;;;;;;;;5061389;28;20902;-83
2020/12/17 04:12:07;;;;;;;61.22;21.25;;;;;;;;;;5061015;28;20098;-83
2020/12/17 04:14:36;;;;;;;71.10;21.88;;;;;;;;;;5061361;28;20080;-83
2020/12/17 04:17:05;;;;;;;66.38;23.27;;;;;;;;;;5064480;28;20061;-83
2020/12/17 04:19:32;;;;;;;62.90;22.48;;;;;;;;;;5061573;28;20044;-84
2020/12/17 04:21:58;;;;;;;59.72;21.33;;;;;;;;;;5061489;28;20098;-83
2020/12/17 04:24:25;;;;;;;54.40;20.88;;;;;;;;;;5061226;28;20053;-84
2020/12/17 04:26:52;;;;;;;57.90;20.70;;;;;;;;;;5060068;28;20072;-83
2020/12/17 04:29:19;;;;;;;58.60;20.98;;;;;;;;;;5078823;28;20520;-83
2020/12/17 04:31:46;;;;;;;63.50;22.38;;;;;;;;;;5078811;28;20075;-83
2020/12/17 04:34:13;;;;;;;65.60;21.17;;;;;;;;;;5061585;28;20048;-84
2020/12/17 04:36:40;;;;;;;61.90;21.73;;;;;;;;;;5078378;28;20091;-84
2020/12/17 04:39:17;;;;;;;66.13;22.58;;;;;;;;;;5062556;28;20058;-83
2020/12/17 04:41:46;;;;;;;65.50;22.17;;;;;;;;;;5060624;28;20076;-83
2020/12/17 04:44:16;;;;;;;60.05;21.95;;;;;;;;;;5060790;28;20080;-83
2020/12/17 04:46:43;;;;;;;63.10;20.70;;;;;;;;;;5078754;28;20094;-83
2020/12/17 04:49:11;;;;;;;62.90;20.63;;;;;;;;;;5060255;28;20048;-83
2020/12/17 04:51:39;;;;;;;57.65;22.45;;;;;;;;;;5061034;28;20076;-83
2020/12/17 04:54:09;;;;;;;66.22;23.42;;;;;;;;;;5078739;28;20045;-83
2020/12/17 04:56:38;;;;;;;60.08;21.55;;;;;;;;;;5056248;28;20083;-83
2020/12/17 04:59:05;;;;;;;64.95;21.30;;;;;;;;;;5040216;28;20053;-83
2020/12/17 05:01:37;;;;;;;62.65;21.77;;;;;;;;;;5061029;28;20509;-83
2020/12/17 05:04:06;;;;;;;;;;;;;;;;;;5061525;28;20054;-83
2020/12/17 05:06:38;;;;;;;63.90;21.85;;;;;;;;;;5059662;28;19924;-83
2020/12/17 05:09:06;;;;;;;68.07;23.13;;;;;;;;;;5060056;28;20056;-83
2020/12/17 05:11:36;;;;;;;60.55;20.88;;;;;;;;;;5078052;28;20045;-83
2020/12/17 05:14:03;;;;;;;62.20;21.27;;;;;;;;;;5059910;28;20079;-84
2020/12/17 05:16:30;;;;;;;62.05;22.48;;;;;;;;;;5058890;28;20044;-84
2020/12/17 05:19:02;;;;;;;59.38;21.88;;;;;;;;;;5062131;28;20467;-84
2020/12/17 05:21:29;;;;;;;59.15;22.95;;;;;;;;;;5059927;28;20048;-83
2020/12/17 05:23:56;;;;;;;60.95;20.52;;;;;;;;;;5065546;28;20052;-85
2020/12/17 05:26:26;;;;;;;56.83;20.98;;;;;;;;;;5068015;28;20063;-85
2020/12/17 05:28:53;;;;;;;58.85;21.70;;;;;;;;;;5068695;28;20056;-85
2020/12/17 05:31:22;;;;;;;61.03;21.50;;;;;;;;;;5065063;28;20052;-85
2020/12/17 05:33:49;;;;;;;55.60;21.73;;;;;;;;;;5069346;28;20049;-85
2020/12/17 05:36:25;;;;;;;55.92;21.17;;;;;;;;;;5061524;28;20080;-85
2020/12/17 05:38:55;;;;;;;53.05;20.95;;;;;;;;;;5060794;28;20052;-85
2020/12/17 05:41:22;;;;;;;49.35;19.85;;;;;;;;;;5065603;28;20824;-84
2020/12/17 05:43:48;;;;;;;59.03;22.42;;;;;;;;;;5069944;28;20134;-85
2020/12/17 05:46:34;;;;;;;56.65;20.80;;;;;;;;;;5077748;28;20044;-85
2020/12/17 05:49:01;;;;;;;;;;;;;;;;;;5060576;28;20079;-85
2020/12/17 05:51:27;;;;;;;54.22;19.77;;;;;;;;;;5060448;28;19920;-84
2020/12/17 05:53:54;;;;;;;53.08;19.48;;;;;;;;;;5071115;28;20075;-84
2020/12/17 05:56:26;;;;;;;58.78;20.75;;;;;;;;;;5074606;22;22575;-84
2020/12/17 05:59:29;;;;;;;54.33;19.85;;;;;;;;;;5116413;28;20058;-85
2020/12/17 06:02:28;;;;;;;54.60;21.08;;;;;;;;;;5136151;27;20055;-85
2020/12/17 06:05:07;;;;;;;55.72;20.77;;;;;;;;;;5114928;27;20047;-84
2020/12/17 06:07:39;;;;;;;53.55;20.35;;;;;;;;;;5125367;27;20153;-84
2020/12/17 06:10:20;;;;;;;50.75;19.90;;;;;;;;;;5121467;27;20042;-89
2020/12/17 06:12:47;;;;;;;53.50;20.00;;;;;;;;;;5099958;27;20109;-90
2020/12/17 06:15:21;;;;;;;62.85;20.15;;;;;;;;;;5105008;27;20486;-85
2020/12/17 06:17:49;;;;;;;58.33;19.63;;;;;;;;;;5118665;27;20047;-86
2020/12/17 06:20:17;;;;;;;57.47;21.40;;;;;;;;;;5128352;27;20047;-86
2020/12/17 06:25:50;;;;;;;48.88;18.73;;;;;;;;;;5012113;28;20056;-80
2020/12/17 06:28:43;;;;;;;55.20;19.90;;;;;;;;;;5011673;28;20049;-79
2020/12/17 06:31:15;;;;;;;49.33;19.90;;;;;;;;;;5025314;28;20077;-79
2020/12/17 06:33:43;;;;;;;53.67;20.42;;;;;;;;;;5021585;28;20338;-82
2020/12/17 06:36:18;;;;;;;53.15;19.92;;;;;;;;;;4998288;28;20124;-80
2020/12/17 06:38:47;;;;;;;55.70;20.40;;;;;;;;;;5017444;28;20145;-81
2020/12/17 06:41:19;;;;;;;58.15;20.98;;;;;;;;;;5003911;28;20145;-82
2020/12/17 06:43:46;;;;;;;56.35;20.15;;;;;;;;;;5009817;28;20089;-80
2020/12/17 06:46:40;;;;;;;49.33;19.75;;;;;;;;;;4989066;28;20060;-80
2020/12/17 06:49:08;;;;;;;52.03;19.45;;;;;;;;;;5003621;28;20137;-80
2020/12/17 06:51:39;;;;;;;55.22;21.05;;;;;;;;;;4990553;28;20132;-80
2020/12/17 06:54:07;;;;;;;49.95;18.77;;;;;;;;;;4990721;28;20134;-80
2020/12/17 06:56:37;;;;;;;53.05;19.00;;;;;;;;;;4989940;28;20188;-81
2020/12/17 06:59:14;;;;;;;50.28;19.30;;;;;;;;;;5006967;28;20062;-80
2020/12/17 07:01:41;;;;;;;54.35;19.17;;;;;;;;;;5010957;28;20096;-81
2020/12/17 07:04:08;;;;;;;53.63;20.55;;;;;;;;;;4993416;28;20569;-82
2020/12/17 07:06:34;;;;;;;52.80;18.77;;;;;;;;;;4994533;28;20049;-81
2020/12/17 07:09:01;;;;;;;52.45;19.52;;;;;;;;;;4994604;28;20128;-82
2020/12/17 07:11:35;;;;;;;46.25;18.70;;;;;;;;;;4994550;28;20433;-80
2020/12/17 07:14:02;;;;;;;49.42;19.27;;;;;;;;;;4995314;28;20115;-81
2020/12/17 07:16:30;;;;;;;46.35;18.33;;;;;;;;;;4993450;28;20479;-82
2020/12/17 07:19:16;;;;;;;47.25;17.60;;;;;;;;;;5010819;28;20046;-82
2020/12/17 07:21:43;;;;;;;61.33;21.70;;;;;;;;;;5011062;28;20483;-82
2020/12/17 07:24:21;;;;;;;51.80;19.13;;;;;;;;;;5011023;28;20465;-81
2020/12/17 07:26:48;;;;;;;46.95;18.42;;;;;;;;;;5011830;28;20157;-82
2020/12/17 07:29:15;;;;;;;52.00;19.13;;;;;;;;;;5011201;28;20486;-81
2020/12/17 07:31:42;;;;;;;47.47;18.25;;;;;;;;;;5010874;28;20186;-82
2020/12/17 07:34:16;;;;;;;58.38;21.30;;;;;;;;;;5010929;28;20133;-80
2020/12/17 07:36:44;;;;;;;47.97;18.80;;;;;;;;;;5010935;28;20066;-80
2020/12/17 07:39:11;;;;;;;49.78;18.23;;;;;;;;;;5010469;28;20089;-82
2020/12/17 07:41:38;;;;;;;50.45;18.45;;;;;;;;;;5011110;28;20109;-81
2020/12/17 07:44:04;;;;;;;51.35;20.13;;;;;;;;;;5010055;28;20053;-82
2020/12/17 07:46:42;;;;;;;49.92;18.35;;;;;;;;;;5011024;28;20067;-81
2020/12/17 07:49:26;;;;;;;52.60;19.05;;;;;;;;;;5009588;28;20152;-81
2020/12/17 07:51:52;;;;;;;49.20;18.30;;;;;;;;;;5009259;28;20053;-81
2020/12/17 07:54:20;;;;;;;40.22;17.20;;;;;;;;;;5010027;28;20574;-82
2020/12/17 07:57:02;;;;;;;40.25;16.95;;;;;;;;;;5011029;28;20111;-82
2020/12/17 07:59:29;;;;;;;48.22;18.35;;;;;;;;;;5010248;28;20431;-82
2020/12/17 08:02:03;;;;;;;47.97;17.92;;;;;;;;;;5010170;28;20124;-82
2020/12/17 08:04:30;;;;;;;46.10;19.05;;;;;;;;;;5011322;28;20104;-82
2020/12/17 08:06:56;;;;;;;49.33;19.15;;;;;;;;;;5011255;28;20127;-82
2020/12/17 08:09:23;;;;;;;47.92;18.13;;;;;;;;;;5010256;28;20618;-82
2020/12/17 08:11:55;;;;;;;45.28;17.92;;;;;;;;;;5008693;28;20474;-81
2020/12/17 08:14:22;;;;;;;46.17;18.80;;;;;;;;;;5009546;28;20054;-82
2020/12/17 08:17:03;;;;;;;47.17;17.95;;;;;;;;;;5009440;28;20061;-82
2020/12/17 08:19:30;;;;;;;48.85;17.88;;;;;;;;;;5008705;28;20112;-81
2020/12/17 08:21:59;;;;;;;45.42;18.15;;;;;;;;;;5011413;28;20118;-82
2020/12/17 08:24:29;;;;;;;41.63;16.95;;;;;;;;;;5010715;28;20141;-82
2020/12/17 08:26:56;;;;;;;48.72;18.30;;;;;;;;;;5011767;28;20046;-84
2020/12/17 08:29:23;;;;;;;44.75;17.80;;;;;;;;;;5011240;28;20132;-82
2020/12/17 08:31:51;;;;;;;48.63;18.67;;;;;;;;;;5010292;28;20325;-82
2020/12/17 08:34:21;;;;;;;41.33;16.85;;;;;;;;;;5010572;28;20041;-81
2020/12/17 08:36:47;;;;;;;45.17;17.23;;;;;;;;;;5009646;28;20066;-81
2020/12/17 08:39:18;;;;;;;49.63;18.65;;;;;;;;;;5009533;28;20117;-82
2020/12/17 08:41:52;;;;;;;41.15;16.70;;;;;;;;;;5007898;28;20056;-81
2020/12/17 08:44:29;;;;;;;44.83;18.98;;;;;;;;;;5009741;28;20046;-82
2020/12/17 08:46:57;;;;;;;42.38;16.77;;;;;;;;;;5009873;28;20077;-85
2020/12/17 08:49:24;;;;;;;43.35;17.55;;;;;;;;;;5012260;28;20141;-84
2020/12/17 08:51:51;;;;;;;43.80;17.17;;;;;;;;;;5010971;28;20077;-84
2020/12/17 08:54:44;;;;;;;43.42;16.42;;;;;;;;;;5012667;28;20042;-83
2020/12/17 08:57:12;;;;;;;41.47;17.17;;;;;;;;;;4992721;28;20405;-83
2020/12/17 08:59:38;;;;;;;47.58;17.92;;;;;;;;;;5009540;28;20146;-82
2020/12/17 09:02:05;;;;;;;46.25;17.02;;;;;;;;;;5009941;28;20085;-83
2020/12/17 09:04:33;;;;;;;44.47;17.25;;;;;;;;;;5008731;28;20065;-81
2020/12/17 09:07:01;;;;;;;42.05;17.10;;;;;;;;;;5008249;28;20068;-82
2020/12/17 09:09:28;;;;;;;45.03;17.95;;;;;;;;;;5008635;28;20085;-81
2020/12/17 09:12:05;;;;;;;38.55;15.98;;;;;;;;;;5008586;28;20337;-81
2020/12/17 09:14:34;;;;;;;47.78;16.67;;;;;;;;;;5008341;28;20077;-83
2020/12/17 09:17:09;;;;;;;37.78;16.33;;;;;;;;;;4989841;28;20069;-82
2020/12/17 09:19:36;;;;;;;39.72;16.38;;;;;;;;;;5001925;28;20049;-81
2020/12/17 09:22:03;;;;;;;42.70;16.00;;;;;;;;;;5007855;28;20157;-82
2020/12/17 09:24:30;;;;;;;44.78;16.02;;;;;;;;;;5008329;28;20140;-81
2020/12/17 09:27:18;;;;;;;40.90;15.98;;;;;;;;;;5008002;28;20461;-80
2020/12/17 09:30:04;;;;;;;45.22;16.38;;;;;;;;;;5008219;28;20495;-78
2020/12/17 09:32:31;;;;;;;40.15;16.50;;;;;;;;;;5008549;28;20057;-81
2020/12/17 09:35:05;;;;;;;37.20;15.85;;;;;;;;;;5008762;28;20380;-83
2020/12/17 09:37:32;;;;;;;38.40;17.27;;;;;;;;;;5007068;28;20169;-83
2020/12/17 09:40:02;;;;;;;41.63;16.02;;;;;;;;;;5007381;28;20045;-81
2020/12/17 09:42:28;;;;;;;40.30;16.45;;;;;;;;;;5006814;28;20069;-80
2020/12/17 09:44:55;;;;;;;50.85;16.95;;;;;;;;;;5008477;28;20057;-81
2020/12/17 09:47:33;;;;;;;40.28;15.68;;;;;;;;;;5007930;28;20132;-81
2020/12/17 09:50:16;;;;;;;35.67;14.93;;;;;;;;;;5009450;28;20049;-83
2020/12/17 09:52:43;;;;;;;35.42;15.55;;;;;;;;;;5007979;28;20057;-81
2020/12/17 09:55:11;;;;;;;40.80;17.00;;;;;;;;;;5007551;28;20057;-81
2020/12/17 09:57:39;;;;;;;41.67;15.40;;;;;;;;;;5006845;28;20088;-82
2020/12/17 10:00:08;;;;;;;37.15;15.07;;;;;;;;;;5006138;28;20141;-82
2020/12/17 10:02:35;;;;;;;40.67;17.30;;;;;;;;;;5008317;28;20573;-82
2020/12/17 10:05:03;;;;;;;39.58;16.77;;;;;;;;;;5007539;28;20483;-81
2020/12/17 10:07:29;;;;;;;39.28;16.27;;;;;;;;;;5008063;28;20082;-82
2020/12/17 10:09:56;;;;;;;38.33;17.25;;;;;;;;;;5006285;28;20062;-81
2020/12/17 10:12:39;;;;;;;39.78;15.73;;;;;;;;;;5007172;28;20042;-82
2020/12/17 10:15:05;;;;;;;43.05;19.33;;;;;;;;;;5007382;28;20082;-82
2020/12/17 10:17:32;;;;;;;38.65;15.52;;;;;;;;;;5006895;28;20132;-81
2020/12/17 10:19:59;;;;;;;37.40;15.80;;;;;;;;;;5006481;28;20169;-82
2020/12/17 10:22:36;;;;;;;35.25;16.05;;;;;;;;;;5014734;28;20059;-81
2020/12/17 10:25:04;;;;;;;37.47;16.88;;;;;;;;;;5006956;28;20168;-82
2020/12/17 10:27:31;;;;;;;42.40;16.20;;;;;;;;;;5006900;28;20499;-81
2020/12/17 10:29:58;;;;;;;40.60;14.75;;;;;;;;;;5006666;28;20446;-82
2020/12/17 10:32:24;;;;;;;34.67;14.50;;;;;;;;;;5007804;28;20084;-81
2020/12/17 10:34:51;;;;;;;39.20;16.40;;;;;;;;;;5006925;28;20136;-81
2020/12/17 10:37:18;;;;;;;39.67;16.80;;;;;;;;;;5009255;28;20106;-82
2020/12/17 10:39:45;;;;;;;38.35;15.80;;;;;;;;;;5007160;28;20065;-81
2020/12/17 10:42:12;;;;;;;36.20;15.48;;;;;;;;;;5006763;28;20129;-82
2020/12/17 10:44:39;;;;;;;37.13;15.75;;;;;;;;;;5007364;28;20089;-81
2020/12/17 10:47:06;;;;;;;30.55;13.98;;;;;;;;;;5006471;28;20054;-82
2020/12/17 10:49:33;;;;;;;46.78;18.60;;;;;;;;;;5006709;28;20108;-83
2020/12/17 10:52:00;;;;;;;34.25;14.73;;;;;;;;;;5010120;28;20115;-82
2020/12/17 10:54:28;;;;;;;40.20;15.23;;;;;;;;;;5008658;28;20550;-82
2020/12/17 10:56:55;;;;;;;38.20;13.95;;;;;;;;;;5007928;28;20093;-82
2020/12/17 10:59:21;;;;;;;40.47;14.90;;;;;;;;;;5020003;28;20048;-81
2020/12/17 11:01:48;;;;;;;38.92;15.63;;;;;;;;;;5025642;28;20128;-81
2020/12/17 11:04:14;;;;;;;36.42;14.70;;;;;;;;;;5028762;28;20143;-81
2020/12/17 11:06:41;;;;;;;39.20;15.23;;;;;;;;;;5010492;28;20106;-82
2020/12/17 11:09:09;;;;;;;34.30;14.23;;;;;;;;;;5010175;28;20052;-82
2020/12/17 11:11:36;;;;;;;34.97;15.13;;;;;;;;;;5011451;28;20136;-81
2020/12/17 11:14:04;;;;;;;36.03;15.70;;;;;;;;;;5011226;28;20069;-81
2020/12/17 11:16:31;;;;;;;33.97;15.15;;;;;;;;;;5010776;28;20058;-81
2020/12/17 11:19:00;;;;;;;32.88;15.00;;;;;;;;;;5010639;28;20081;-83
2020/12/17 11:21:27;;;;;;;32.75;15.48;;;;;;;;;;5011287;28;20084;-82
2020/12/17 11:23:54;;;;;;;35.65;15.05;;;;;;;;;;5010769;28;20442;-81
2020/12/17 11:26:20;;;;;;;37.70;14.35;;;;;;;;;;5011461;28;20073;-82
2020/12/17 11:28:47;;;;;;;34.33;15.07;;;;;;;;;;5011961;28;20050;-81
2020/12/17 11:31:16;;;;;;;30.67;14.05;;;;;;;;;;5010146;28;20511;-82
2020/12/17 11:33:44;;;;;;;32.92;14.82;;;;;;;;;;5013667;28;20289;-82
2020/12/17 11:36:10;;;;;;;34.63;14.13;;;;;;;;;;5025966;28;20132;-82
2020/12/17 11:38:38;;;;;;;30.70;13.82;;;;;;;;;;5007571;28;20104;-82
2020/12/17 11:41:05;;;;;;;31.27;13.98;;;;;;;;;;5008265;28;20177;-82
2020/12/17 11:43:33;;;;;;;38.40;13.70;;;;;;;;;;5006566;28;20107;-82
2020/12/17 11:46:01;;;;;;;28.15;13.55;;;;;;;;;;5009806;28;20053;-82
2020/12/17 11:48:27;;;;;;;37.35;14.45;;;;;;;;;;5014378;28;20620;-82
2020/12/17 11:50:54;;;;;;;32.35;13.75;;;;;;;;;;5022291;28;20723;-81
2020/12/17 11:53:24;;;;;;;34.58;14.52;;;;;;;;;;5022994;28;20141;-82
2020/12/17 11:55:50;;;;;;;40.33;15.48;;;;;;;;;;5020718;28;20077;-82
2020/12/17 11:58:17;;;;;;;33.95;14.77;;;;;;;;;;5016841;28;20139;-81
2020/12/17 12:00:45;;;;;;;33.30;13.73;;;;;;;;;;5024238;28;20568;-82
2020/12/17 12:03:12;;;;;;;33.50;15.27;;;;;;;;;;5031791;28;20100;-82
2020/12/17 12:05:39;;;;;;;31.52;14.00;;;;;;;;;;5021521;28;20057;-82
2020/12/17 12:08:09;;;;;;;31.25;13.10;;;;;;;;;;5033274;28;20095;-83
2020/12/17 12:10:36;;;;;;;27.25;14.00;;;;;;;;;;5024308;28;20050;-83
2020/12/17 12:13:02;;;;;;;27.05;12.45;;;;;;;;;;5020031;28;20477;-84
2020/12/17 12:15:35;;;;;;;27.67;12.98;;;;;;;;;;5019633;28;20460;-83
2020/12/17 12:18:02;;;;;;;28.38;12.68;;;;;;;;;;5025322;28;20459;-81
2020/12/17 12:20:28;;;;;;;28.08;12.45;;;;;;;;;;5026351;28;20069;-81
2020/12/17 12:22:55;;;;;;;27.83;12.48;;;;;;;;;;5020355;28;20116;-80
2020/12/17 12:25:22;;;;;;;24.85;11.70;;;;;;;;;;5021396;28;20068;-80
2020/12/17 12:27:49;;;;;;;28.42;11.90;;;;;;;;;;5036464;28;20490;-82
2020/12/17 12:30:16;;;;;;;27.92;12.40;;;;;;;;;;5033750;28;20080;-83
2020/12/17 12:32:43;;;;;;;28.25;12.32;;;;;;;;;;5022818;28;20046;-81
2020/12/17 12:35:11;;;;;;;28.50;13.35;;;;;;;;;;5016049;28;20104;-81
2020/12/17 12:37:37;;;;;;;26.88;12.07;;;;;;;;;;5016955;28;20050;-81
2020/12/17 12:40:14;;;;;;;26.38;12.65;;;;;;;;;;5016692;28;20058;-84
2020/12/17 12:42:42;;;;;;;29.40;13.15;;;;;;;;;;5017788;28;20053;-87
2020/12/17 12:45:08;;;;;;;28.33;12.32;;;;;;;;;;5027915;28;20115;-84
2020/12/17 12:47:35;;;;;;;30.23;11.95;;;;;;;;;;5028492;28;20076;-86
2020/12/17 12:50:02;;;;;;;35.15;12.50;;;;;;;;;;5025588;28;20077;-85
2020/12/17 12:52:29;;;;;;;24.38;12.18;;;;;;;;;;5034974;28;20072;-83
2020/12/17 12:55:03;;;;;;;27.45;12.25;;;;;;;;;;5027271;28;20077;-83
2020/12/17 12:57:31;;;;;;;25.98;12.85;;;;;;;;;;5020853;28;20053;-84
2020/12/17 12:59:57;;;;;;;34.33;12.65;;;;;;;;;;5031756;28;20454;-84
2020/12/17 13:02:24;;;;;;;29.95;13.23;;;;;;;;;;5015228;28;20080;-79
2020/12/17 13:04:51;;;;;;;29.52;11.52;;;;;;;;;;5031955;28;20453;-86
2020/12/17 13:07:17;;;;;;;34.28;12.13;;;;;;;;;;5021266;28;20053;-82
2020/12/17 13:09:44;;;;;;;31.58;12.68;;;;;;;;;;5013256;28;20042;-82
2020/12/17 13:12:11;;;;;;;30.15;12.48;;;;;;;;;;5011831;28;20042;-82
2020/12/17 13:14:37;;;;;;;23.80;12.38;;;;;;;;;;5012719;28;20177;-81
2020/12/17 13:17:07;;;;;;;30.48;12.90;;;;;;;;;;5019326;28;20045;-87
2020/12/17 13:19:45;;;;;;;37.90;14.35;;;;;;;;;;5021484;28;20062;-84
2020/12/17 13:22:13;;;;;;;28.80;13.38;;;;;;;;;;5020135;28;20096;-84
2020/12/17 13:24:40;;;;;;;30.23;13.50;;;;;;;;;;5014962;28;20050;-83
2020/12/17 13:27:07;;;;;;;27.65;13.10;;;;;;;;;;5026465;28;20132;-84
2020/12/17 13:29:34;;;;;;;27.52;13.13;;;;;;;;;;5018049;28;20104;-84
2020/12/17 13:32:04;;;;;;;28.05;13.32;;;;;;;;;;5013302;28;20437;-83
2020/12/17 13:34:31;;;;;;;36.78;14.02;;;;;;;;;;5033080;28;20099;-85
2020/12/17 13:36:57;;;;;;;33.60;13.80;;;;;;;;;;5033905;28;20088;-84
2020/12/17 13:39:29;;;;;;;33.83;13.65;;;;;;;;;;5028810;28;20053;-85
2020/12/17 13:42:06;;;;;;;30.60;14.02;;;;;;;;;;5025924;28;20053;-86
2020/12/17 13:44:44;;;;;;;35.47;14.27;;;;;;;;;;5035571;28;20061;-86
2020/12/17 13:47:12;;;;;;;36.45;14.25;;;;;;;;;;5034636;28;20379;-86
2020/12/17 13:49:38;;;;;;;30.35;12.57;;;;;;;;;;5028546;28;20125;-86
2020/12/17 13:52:05;;;;;;;33.65;14.43;;;;;;;;;;5014082;28;20046;-86
2020/12/17 13:54:34;;;;;;;33.17;14.38;;;;;;;;;;5014417;28;20042;-86
2020/12/17 13:57:02;;;;;;;40.40;14.63;;;;;;;;;;5015646;28;20077;-84
2020/12/17 13:59:28;;;;;;;30.48;14.20;;;;;;;;;;5017795;28;20665;-85
2020/12/17 14:01:56;;;;;;;37.45;15.40;;;;;;;;;;5020105;28;20129;-84
2020/12/17 14:04:33;;;;;;;30.50;14.18;;;;;;;;;;5030527;28;20080;-84
2020/12/17 14:07:06;;;;;;;31.90;14.15;;;;;;;;;;5033041;28;20096;-84
2020/12/17 14:10:00;;;;;;;35.75;14.70;;;;;;;;;;5031885;28;20952;-83
2020/12/17 14:12:47;;;;;;;32.38;14.75;;;;;;;;;;5011848;28;20446;-84
2020/12/17 14:15:14;;;;;;;34.60;15.20;;;;;;;;;;5012584;28;20046;-82
2020/12/17 14:17:43;;;;;;;46.10;15.07;;;;;;;;;;5023818;28;20045;-82
2020/12/17 14:20:19;;;;;;;36.65;15.23;;;;;;;;;;5031680;28;20057;-84
2020/12/17 14:22:48;;;;;;;38.40;15.63;;;;;;;;;;5025386;28;20501;-84
2020/12/17 14:25:15;;;;;;;34.40;15.27;;;;;;;;;;5027632;28;20103;-84
2020/12/17 14:27:41;;;;;;;35.90;15.80;;;;;;;;;;5012627;28;20080;-84
2020/12/17 14:30:09;;;;;;;41.95;15.02;;;;;;;;;;5025817;28;20049;-84
2020/12/17 14:32:37;;;;;;;38.50;15.32;;;;;;;;;;5030176;28;20049;-83